createdAt,value
2022-10-02T04:17:44.739Z,8.51
2022-10-02T04:20:34.158Z,8.52
2022-10-02T04:23:11.179Z,8.55
2022-10-02T04:25:42.737Z,8.45
2022-10-02T04:28:14.883Z,8.53
2022-10-02T04:30:41.774Z,8.57
2022-10-02T04:33:19.508Z,8.60
2022-10-02T04:36:12.745Z,8.61
2022-10-02T04:38:51.261Z,8.64
2022-10-02T04:41:29.409Z,8.68
2022-10-02T04:44:23.177Z,8.63
2022-10-02T04:47:19.042Z,8.44
2022-10-02T04:50:16.054Z,8.56
2022-10-02T04:53:12.466Z,8.43
2022-10-02T04:56:21.175Z,8.56
2022-10-02T04:59:02.601Z,8.57
2022-10-02T05:01:37.664Z,8.61
2022-10-02T05:04:41.933Z,8.47
2022-10-02T05:07:22.606Z,8.27
2022-10-02T05:10:15.705Z,8.21
2022-10-02T05:13:14.351Z,8.28
2022-10-02T05:15:53.133Z,8.14
2022-10-02T05:18:50.684Z,8.12
2022-10-02T05:21:43.733Z,8.22
2022-10-02T05:24:37.889Z,8.23
2022-10-02T05:27:38.479Z,8.37
2022-10-02T05:30:12.051Z,8.39
2022-10-02T05:33:15.842Z,8.43
2022-10-02T05:35:48.177Z,8.39
2022-10-02T05:38:38.745Z,8.50
2022-10-02T05:41:30.372Z,8.48
2022-10-02T05:44:28.197Z,8.34
2022-10-02T05:47:05.870Z,8.42
2022-10-02T05:49:44.648Z,8.51
2022-10-02T05:52:19.719Z,8.66
2022-10-02T05:54:57.029Z,8.61
2022-10-02T05:57:33.123Z,8.44
2022-10-02T06:00:16.857Z,8.55
2022-10-02T06:02:56.740Z,8.51
2022-10-02T06:05:55.159Z,8.57
2022-10-02T06:08:35.725Z,8.53
2022-10-02T06:11:17.142Z,8.53
2022-10-02T06:13:51.600Z,8.49
2022-10-02T06:16:34.763Z,8.56
2022-10-02T06:19:13.262Z,8.43
2022-10-02T06:21:50.971Z,8.49
2022-10-02T06:24:25.054Z,8.58
2022-10-02T06:26:57.741Z,8.55
2022-10-02T06:29:48.721Z,8.48
2022-10-02T06:32:37.898Z,8.55
2022-10-02T06:35:12.213Z,8.53
2022-10-02T06:38:05.756Z,8.43
2022-10-02T06:40:43.691Z,8.53
2022-10-02T06:43:27.160Z,8.56
2022-10-02T06:46:08.806Z,8.60
2022-10-02T06:49:00.371Z,8.55
2022-10-02T06:51:48.896Z,8.56
2022-10-02T06:54:24.307Z,8.55
2022-10-02T06:57:14.697Z,8.72
2022-10-02T07:00:00.148Z,8.78
2022-10-02T07:02:32.702Z,8.69
2022-10-02T07:05:21.096Z,8.72
2022-10-02T07:08:18.659Z,8.63
2022-10-02T07:11:01.616Z,8.62
2022-10-02T07:14:07.002Z,8.70
2022-10-02T07:16:57.641Z,8.69
2022-10-02T07:19:43.961Z,8.71
2022-10-02T07:22:45.002Z,8.68
2022-10-02T07:25:30.546Z,8.80
2022-10-02T07:28:10.622Z,8.57
2022-10-02T07:30:45.814Z,8.70
2022-10-02T07:33:19.504Z,8.80
2022-10-02T07:35:59.326Z,8.79
2022-10-02T07:38:44.457Z,8.75
2022-10-02T07:41:52.077Z,8.76
2022-10-02T07:45:01.120Z,8.75
2022-10-02T07:48:40.004Z,8.82
2022-10-02T07:52:03.125Z,8.75
2022-10-02T07:54:49.123Z,8.69
2022-10-02T07:57:23.932Z,8.77
2022-10-02T08:00:18.911Z,8.73
2022-10-02T08:03:01.372Z,8.76
2022-10-02T08:05:40.575Z,8.88
2022-10-02T08:08:14.387Z,8.76
2022-10-02T08:10:43.637Z,8.72
2022-10-02T08:13:20.766Z,8.79
2022-10-02T08:15:53.589Z,9.05
2022-10-02T08:18:35.333Z,8.85
2022-10-02T08:21:05.878Z,8.77
2022-10-02T08:24:41.670Z,8.82
2022-10-02T08:27:12.893Z,8.93
2022-10-02T08:29:45.128Z,8.86
2022-10-02T08:32:12.709Z,8.79
2022-10-02T08:34:40.804Z,8.78
2022-10-02T08:37:35.015Z,8.82
2022-10-02T08:40:25.719Z,8.80
2022-10-02T08:43:32.555Z,8.82
2022-10-02T08:46:19.205Z,8.91
2022-10-02T08:49:09.351Z,9.09
2022-10-02T08:52:06.752Z,9.12
2022-10-02T08:54:54.848Z,9.32
2022-10-02T08:57:38.166Z,8.98
2022-10-02T09:00:30.663Z,9.06
2022-10-02T09:03:31.428Z,9.19
2022-10-02T09:06:16.244Z,9.26
2022-10-02T09:09:17.706Z,9.16
2022-10-02T09:12:40.776Z,9.03
2022-10-02T09:16:15.272Z,9.02
2022-10-02T09:19:25.339Z,9.33
2022-10-02T09:21:56.246Z,9.17
2022-10-02T09:24:56.050Z,9.15
2022-10-02T09:27:36.475Z,9.12
2022-10-02T09:30:03.014Z,9.39
2022-10-02T09:32:59.224Z,9.37
2022-10-02T09:35:50.702Z,9.19
2022-10-02T09:39:27.569Z,9.32
2022-10-02T09:42:26.526Z,9.12
2022-10-02T09:45:22.502Z,9.09
2022-10-02T09:48:11.855Z,9.16
2022-10-02T09:50:44.232Z,9.33
2022-10-02T09:53:44.500Z,9.46
2022-10-02T09:56:40.977Z,9.15
2022-10-02T09:59:29.596Z,9.29
2022-10-02T10:06:24.086Z,9.41
2022-10-02T10:09:00.453Z,9.37
2022-10-02T10:11:44.648Z,9.42
2022-10-02T10:14:30.498Z,9.35
2022-10-02T10:17:13.444Z,9.21
2022-10-02T10:19:54.684Z,9.30
2022-10-02T10:22:43.177Z,9.15
2022-10-02T10:25:54.773Z,9.49
2022-10-02T10:28:45.088Z,9.49
2022-10-02T10:31:42.423Z,9.64
2022-10-02T10:34:25.452Z,9.98
2022-10-02T10:37:23.923Z,9.81
2022-10-02T10:40:28.673Z,9.79
2022-10-02T10:43:13.276Z,9.87
2022-10-02T10:45:54.066Z,9.76
2022-10-02T10:49:09.715Z,9.98
2022-10-02T10:51:45.858Z,9.75
2022-10-02T10:54:48.353Z,9.95
2022-10-02T10:57:42.788Z,10.14
2022-10-02T11:00:09.200Z,9.84
2022-10-02T11:03:11.062Z,9.74
2022-10-02T11:05:59.307Z,9.80
2022-10-02T11:08:54.284Z,9.53
2022-10-02T11:11:57.589Z,9.54
2022-10-02T11:14:33.372Z,9.70
2022-10-02T11:17:13.267Z,9.67
2022-10-02T11:19:59.977Z,9.63
2022-10-02T11:22:44.587Z,9.79
2022-10-02T11:25:14.635Z,9.82
2022-10-02T11:28:06.660Z,9.75
2022-10-02T11:31:00.554Z,9.94
2022-10-02T11:33:33.949Z,9.46
2022-10-02T11:36:24.563Z,9.72
2022-10-02T11:39:14.278Z,9.76
2022-10-02T11:41:50.112Z,9.61
2022-10-02T11:45:02.659Z,9.76
2022-10-02T11:47:57.375Z,9.80
2022-10-02T11:50:45.724Z,9.79
2022-10-02T11:53:29.311Z,9.67
2022-10-02T11:56:12.747Z,9.82
2022-10-02T11:59:23.039Z,9.75
2022-10-02T12:02:07.839Z,10.03
2022-10-02T12:05:10.782Z,9.88
2022-10-02T12:08:08.131Z,10.02
2022-10-02T12:10:48.427Z,9.81
2022-10-02T12:13:20.966Z,9.97
2022-10-02T12:16:03.538Z,10.20
2022-10-02T12:18:51.233Z,10.02
2022-10-02T12:22:21.412Z,9.97
2022-10-02T12:25:15.623Z,10.01
2022-10-02T12:27:51.104Z,10.21
2022-10-02T12:30:25.795Z,10.39
2022-10-02T12:33:14.690Z,10.22
2022-10-02T12:35:57.903Z,10.10
2022-10-02T12:38:47.632Z,10.45
2022-10-02T12:41:33.838Z,10.49
2022-10-02T12:44:16.922Z,10.66
2022-10-02T12:46:46.341Z,10.58
2022-10-02T12:49:38.756Z,10.37
2022-10-02T12:52:32.666Z,10.34
2022-10-02T12:55:40.081Z,10.32
2022-10-02T12:58:15.401Z,10.12
2022-10-02T13:00:53.005Z,10.39
2022-10-02T13:03:48.130Z,10.33
2022-10-02T13:06:41.530Z,10.36
2022-10-02T13:09:29.869Z,10.58
2022-10-02T13:12:09.441Z,10.33
2022-10-02T13:15:16.495Z,10.59
2022-10-02T13:17:46.167Z,10.14
2022-10-02T13:20:43.759Z,10.24
2022-10-02T13:23:31.046Z,10.17
2022-10-02T13:26:29.799Z,10.38
2022-10-02T13:29:24.412Z,10.13
2022-10-02T13:32:09.781Z,10.23
2022-10-02T13:34:54.428Z,10.16
2022-10-02T13:37:39.106Z,10.25
2022-10-02T13:40:29.428Z,10.15
2022-10-02T13:43:05.922Z,10.12
2022-10-02T13:45:42.531Z,10.14
2022-10-02T13:48:31.324Z,10.42
2022-10-02T13:51:21.893Z,10.26
2022-10-02T13:53:54.258Z,10.17
2022-10-02T13:56:28.755Z,10.37
2022-10-02T13:59:14.160Z,10.46
2022-10-02T14:01:49.671Z,10.10
2022-10-02T14:04:43.676Z,10.13
2022-10-02T14:07:30.270Z,10.29
2022-10-02T14:10:17.278Z,10.33
2022-10-02T14:12:55.276Z,10.26
2022-10-02T14:15:30.385Z,10.16
2022-10-02T14:18:14.875Z,10.29
2022-10-02T14:20:49.124Z,10.30
2022-10-02T14:23:39.504Z,10.32
2022-10-02T14:26:14.979Z,10.26
2022-10-02T14:29:08.553Z,10.31
2022-10-02T14:32:26.319Z,10.65
2022-10-02T14:35:09.715Z,10.54
2022-10-02T14:37:55.233Z,10.47
2022-10-02T14:40:24.429Z,10.46
2022-10-02T14:43:29.114Z,10.71
2022-10-02T14:46:11.433Z,10.55
2022-10-02T14:49:00.068Z,10.83
2022-10-02T14:51:49.668Z,10.77
2022-10-02T14:54:52.997Z,10.77
2022-10-02T14:57:49.824Z,10.83
2022-10-02T15:00:19.716Z,10.72
2022-10-02T15:03:02.089Z,10.61
2022-10-02T15:06:05.109Z,10.77
2022-10-02T15:08:49.954Z,10.83
2022-10-02T15:11:32.228Z,10.98
2022-10-02T15:14:09.056Z,11.01
2022-10-02T15:17:02.695Z,10.70
2022-10-02T15:20:36.083Z,10.69
2022-10-02T15:23:06.734Z,10.73
2022-10-02T15:26:01.827Z,10.92
2022-10-02T15:28:47.023Z,10.60
2022-10-02T15:31:32.529Z,10.43
2022-10-02T15:34:12.831Z,10.83
2022-10-02T15:37:11.568Z,10.52
2022-10-02T15:39:44.136Z,10.61
2022-10-02T15:42:27.501Z,10.24
2022-10-02T15:45:20.603Z,10.20
2022-10-02T15:48:02.777Z,10.10
2022-10-02T15:51:00.442Z,10.02
2022-10-02T15:53:51.365Z,10.15
2022-10-02T15:56:17.850Z,10.18
2022-10-02T15:59:26.099Z,9.85
2022-10-02T16:02:17.100Z,10.09
2022-10-02T16:05:05.634Z,10.14
2022-10-02T16:08:00.639Z,9.98
2022-10-02T16:10:37.584Z,10.08
2022-10-02T16:13:26.093Z,9.98
2022-10-02T16:15:55.611Z,9.81
2022-10-02T16:18:33.327Z,9.77
2022-10-02T16:21:12.596Z,9.94
2022-10-02T16:24:26.364Z,10.02
2022-10-02T16:27:19.189Z,10.08
2022-10-02T16:30:11.096Z,10.05
2022-10-02T16:33:00.890Z,9.88
2022-10-02T16:35:50.928Z,9.81
2022-10-02T16:38:51.985Z,9.89
2022-10-02T16:41:28.369Z,9.92
2022-10-02T16:44:18.032Z,9.95
2022-10-02T16:46:50.906Z,9.83
2022-10-02T16:49:45.521Z,10.02
2022-10-02T16:52:22.520Z,9.95
2022-10-02T16:55:47.231Z,10.09
2022-10-02T16:58:40.183Z,9.97
2022-10-02T17:01:49.578Z,9.68
2022-10-02T17:04:52.495Z,9.54
2022-10-02T17:07:41.312Z,9.48
2022-10-02T17:10:19.839Z,9.51
2022-10-02T17:12:58.385Z,9.53
2022-10-02T17:15:46.831Z,9.60
2022-10-02T17:18:37.860Z,9.51
2022-10-02T17:21:46.236Z,9.27
2022-10-02T17:24:30.928Z,9.11
2022-10-02T17:27:18.734Z,9.22
2022-10-02T17:30:12.757Z,9.29
2022-10-02T17:32:51.398Z,9.46
2022-10-02T17:35:24.039Z,9.47
2022-10-02T17:38:06.387Z,9.49
2022-10-02T17:40:45.867Z,9.42
2022-10-02T17:43:31.314Z,9.36
2022-10-02T17:46:19.704Z,9.40
2022-10-02T17:48:58.466Z,9.05
2022-10-02T17:51:57.975Z,9.09
2022-10-02T17:54:58.408Z,8.96
2022-10-02T17:57:54.431Z,8.95
2022-10-02T18:00:24.697Z,9.05
2022-10-02T18:03:36.732Z,8.98
2022-10-02T18:06:17.043Z,9.03
2022-10-02T18:09:02.664Z,8.96
2022-10-02T18:11:52.640Z,8.98
2022-10-02T18:14:57.392Z,8.89
2022-10-02T18:17:29.809Z,8.69
2022-10-02T18:20:18.658Z,8.71
2022-10-02T18:22:58.407Z,8.62
2022-10-02T18:25:55.718Z,8.58
2022-10-02T18:28:53.403Z,8.57
2022-10-02T18:31:55.233Z,8.66
2022-10-02T18:34:43.976Z,8.78
2022-10-02T18:37:31.327Z,8.83
2022-10-02T18:40:17.737Z,8.81
2022-10-02T18:43:21.924Z,8.79
2022-10-02T18:46:00.020Z,8.81
2022-10-02T18:48:48.087Z,8.79
2022-10-02T18:51:56.120Z,8.60
2022-10-02T18:54:51.825Z,8.64
2022-10-02T18:57:56.186Z,8.60
2022-10-02T19:00:26.044Z,8.40
2022-10-02T19:03:20.331Z,8.54
2022-10-02T19:06:08.517Z,8.47
2022-10-02T19:09:06.903Z,8.42
2022-10-02T19:11:42.895Z,8.44
2022-10-02T19:14:25.762Z,8.50
2022-10-02T19:17:02.005Z,8.64
2022-10-02T19:19:29.890Z,8.56
2022-10-02T19:22:01.199Z,8.41
2022-10-02T19:24:37.988Z,8.48
2022-10-02T19:27:08.421Z,8.47
2022-10-02T19:29:50.319Z,8.46
2022-10-02T19:32:31.188Z,8.49
2022-10-02T19:35:18.307Z,8.56
2022-10-02T19:37:51.655Z,8.57
2022-10-02T19:40:24.678Z,8.46
2022-10-02T19:42:55.962Z,8.36
2022-10-02T19:45:29.283Z,8.54
2022-10-02T19:48:09.078Z,8.54
2022-10-02T19:50:41.949Z,8.52
2022-10-02T19:53:40.994Z,8.45
2022-10-02T19:56:24.469Z,8.33
2022-10-02T19:58:58.292Z,8.23
2022-10-02T20:01:34.398Z,8.33
2022-10-02T20:04:04.837Z,8.36
2022-10-02T20:06:37.579Z,8.37
2022-10-02T20:09:19.874Z,8.42
2022-10-02T20:11:50.157Z,8.47
2022-10-02T20:14:32.457Z,8.47
2022-10-02T20:17:12.529Z,8.60
2022-10-02T20:19:42.810Z,8.60
2022-10-02T20:22:30.448Z,8.66
2022-10-02T20:25:46.417Z,8.59
2022-10-02T20:28:20.653Z,8.50
2022-10-02T20:30:56.391Z,8.27
2022-10-02T20:33:45.335Z,8.15
2022-10-02T20:36:26.639Z,7.88
2022-10-02T20:39:00.726Z,7.83
2022-10-02T20:41:32.130Z,7.61
2022-10-02T20:44:04.416Z,7.54
2022-10-02T20:46:35.708Z,7.60
2022-10-02T20:49:42.470Z,7.56
2022-10-02T20:52:46.200Z,7.78
2022-10-02T20:55:49.352Z,7.78
2022-10-02T20:58:43.418Z,7.75
2022-10-02T21:01:31.630Z,7.88
2022-10-02T21:04:13.465Z,7.88
2022-10-02T21:07:05.796Z,7.95
2022-10-02T21:09:52.090Z,7.96
2022-10-02T21:12:39.967Z,7.99
2022-10-02T21:15:31.481Z,8.08
2022-10-02T21:17:58.026Z,8.01
2022-10-02T21:20:59.906Z,8.04
2022-10-02T21:24:01.272Z,8.10
2022-10-02T21:26:36.557Z,8.10
2022-10-02T21:29:19.388Z,8.07
2022-10-02T21:32:07.669Z,8.01
2022-10-02T21:34:41.640Z,8.03
2022-10-02T21:37:26.446Z,8.04
2022-10-02T21:40:47.417Z,8.11
2022-10-02T21:43:28.779Z,8.06
2022-10-02T21:46:29.644Z,8.07
2022-10-02T21:49:17.300Z,8.07
2022-10-02T21:52:02.070Z,8.15
2022-10-02T21:54:40.496Z,8.06
2022-10-02T21:57:19.142Z,8.14
